Time;durP1;ratioP1;P1;durP2;ratioP2;P2;SDS_P1;SDS_P2;PMS_P1;PMS_P2;Temp;Humidity;BMP_temperature;BMP_pressure;BME280_temperature;BME280_humidity;BME280_pressure;Samples;Min_cycle;Max_cycle;Signal;HPM_P1;HPM_P2
2021/03/18 00:01:06;;;;;;;9.60;7.00;;;3.30;99.90;;;;;;4910253;29;20475;-91
2021/03/18 00:03:35;;;;;;;12.23;7.23;;;3.30;99.90;;;;;;4914541;29;20461;-94
2021/03/18 00:06:03;;;;;;;8.65;7.85;;;3.40;99.90;;;;;;4914340;29;20489;-91
2021/03/18 00:11:14;;;;;;;7.38;6.50;;;3.40;99.90;;;;;;4987021;23;20259;-92
2021/03/18 00:13:42;;;;;;;8.53;7.33;;;3.40;99.90;;;;;;4960938;29;20206;-91
2021/03/18 00:16:10;;;;;;;8.70;7.60;;;3.30;99.90;;;;;;4960246;29;20847;-92
2021/03/18 00:18:40;;;;;;;10.05;7.88;;;3.30;99.90;;;;;;4961962;28;20463;-92
2021/03/18 00:21:07;;;;;;;8.00;7.17;;;3.30;99.90;;;;;;4961491;28;20210;-92
2021/03/18 00:23:34;;;;;;;11.68;8.75;;;3.30;99.90;;;;;;4960976;29;20446;-92
2021/03/18 00:26:01;;;;;;;8.10;7.30;;;3.40;99.90;;;;;;4967077;28;20219;-93
2021/03/18 00:28:29;;;;;;;8.33;7.20;;;3.40;99.90;;;;;;4979280;28;20555;-92
2021/03/18 00:30:56;;;;;;;8.55;6.32;;;3.40;99.90;;;;;;4980255;28;20545;-91
2021/03/18 00:33:25;;;;;;;8.57;7.20;;;3.40;99.90;;;;;;4987773;28;20223;-93
2021/03/18 00:35:53;;;;;;;9.43;7.50;;;3.50;99.90;;;;;;4980880;28;20449;-92
2021/03/18 00:38:20;;;;;;;8.80;7.90;;;3.50;99.90;;;;;;4981213;28;20242;-93
2021/03/18 00:40:49;;;;;;;7.90;6.87;;;3.50;99.90;;;;;;4981692;28;20467;-91
2021/03/18 00:43:19;;;;;;;8.00;6.38;;;3.50;99.90;;;;;;4973392;28;20460;-93
2021/03/18 00:45:49;;;;;;;10.95;6.57;;;3.50;99.90;;;;;;4974860;28;20223;-94
2021/03/18 00:48:18;;;;;;;8.18;7.13;;;3.50;99.90;;;;;;4969360;28;20237;-92
2021/03/18 00:50:47;;;;;;;6.63;5.70;;;3.60;99.90;;;;;;4963205;29;20255;-92
2021/03/18 00:53:15;;;;;;;8.57;7.00;;;3.60;99.90;;;;;;4966245;28;20279;-92
2021/03/18 00:55:42;;;;;;;7.93;5.90;;;3.60;99.90;;;;;;4964774;28;20457;-93
2021/03/18 00:58:09;;;;;;;7.20;6.07;;;3.70;99.90;;;;;;4973297;28;20470;-92
2021/03/18 01:00:39;;;;;;;7.60;6.33;;;3.60;99.90;;;;;;4977475;28;20468;-92
2021/03/18 01:03:11;;;;;;;8.33;7.53;;;3.60;99.90;;;;;;4976806;28;20458;-93
2021/03/18 01:05:40;;;;;;;9.37;7.60;;;3.60;99.90;;;;;;4976967;28;20487;-95
2021/03/18 01:08:08;;;;;;;14.90;9.02;;;3.50;99.90;;;;;;4980189;28;20464;-94
2021/03/18 01:10:38;;;;;;;9.77;7.27;;;3.40;99.90;;;;;;4979842;28;20216;-95
2021/03/18 01:13:05;;;;;;;7.17;6.40;;;3.40;99.90;;;;;;4978816;28;20451;-93
2021/03/18 01:15:32;;;;;;;9.40;7.13;;;3.40;99.90;;;;;;4977302;28;20443;-92
2021/03/18 01:17:58;;;;;;;7.57;6.30;;;3.40;99.90;;;;;;4979479;28;20522;-93
2021/03/18 01:20:26;;;;;;;13.82;7.18;;;3.50;99.90;;;;;;4981133;28;20455;-93
2021/03/18 01:22:53;;;;;;;7.20;6.27;;;3.50;99.90;;;;;;4972938;28;20299;-92
2021/03/18 01:25:20;;;;;;;7.90;6.13;;;3.40;99.90;;;;;;4980266;28;20467;-93
2021/03/18 01:27:46;;;;;;;12.68;7.28;;;3.40;99.90;;;;;;4982491;28;20514;-91
2021/03/18 01:30:16;;;;;;;6.85;6.22;;;3.40;99.90;;;;;;4970840;29;20259;-91
2021/03/18 01:32:43;;;;;;;9.82;5.97;;;3.40;99.90;;;;;;4965156;28;20217;-91
2021/03/18 01:35:16;;;;;;;6.28;5.63;;;3.40;99.90;;;;;;4964597;28;20212;-90
2021/03/18 01:37:44;;;;;;;9.60;5.95;;;3.50;99.90;;;;;;4967309;28;20220;-92
2021/03/18 01:40:18;;;;;;;10.02;5.60;;;3.50;99.90;;;;;;4969568;28;20220;-90
2021/03/18 01:42:44;;;;;;;8.75;6.20;;;3.60;99.90;;;;;;4982660;28;20249;-93
2021/03/18 01:45:13;;;;;;;7.23;4.77;;;3.50;99.90;;;;;;4972785;29;20224;-89
2021/03/18 01:47:40;;;;;;;6.93;5.97;;;3.60;99.90;;;;;;4969162;29;20530;-90
2021/03/18 01:50:09;;;;;;;9.00;5.87;;;3.60;99.90;;;;;;4966489;28;20555;-90
2021/03/18 01:52:36;;;;;;;6.40;5.80;;;3.60;99.90;;;;;;4968320;28;20487;-90
2021/03/18 01:55:04;;;;;;;6.78;6.03;;;3.60;99.90;;;;;;4963906;28;20462;-91
2021/03/18 01:57:31;;;;;;;7.13;5.27;;;3.50;99.90;;;;;;4965153;29;20211;-90
2021/03/18 01:59:58;;;;;;;7.60;5.60;;;3.50;99.90;;;;;;4968294;29;20493;-91
2021/03/18 02:02:25;;;;;;;6.80;6.07;;;3.50;99.90;;;;;;4967051;29;20959;-91
2021/03/18 02:04:51;;;;;;;8.60;5.70;;;3.40;99.90;;;;;;4975715;28;20238;-90
2021/03/18 02:07:18;;;;;;;5.65;5.13;;;3.50;99.90;;;;;;4980644;29;20541;-92
2021/03/18 02:09:44;;;;;;;7.70;5.90;;;3.50;99.90;;;;;;4968632;28;20248;-90
2021/03/18 02:12:11;;;;;;;6.82;5.47;;;3.50;99.90;;;;;;4968849;28;20488;-90
2021/03/18 02:14:38;;;;;;;8.30;5.40;;;3.50;99.90;;;;;;4964687;29;20204;-91
2021/03/18 02:17:09;;;;;;;5.45;4.95;;;3.50;99.90;;;;;;4962159;28;20498;-90
2021/03/18 02:20:03;;;;;;;8.63;5.63;;;3.50;99.90;;;;;;4962046;28;20231;-90
2021/03/18 02:22:48;;;;;;;6.22;5.20;;;3.50;99.90;;;;;;4962179;29;20285;-91
2021/03/18 02:25:21;;;;;;;7.13;5.43;;;3.50;99.90;;;;;;4966466;28;20292;-91
2021/03/18 02:28:12;;;;;;;6.20;5.50;;;3.50;99.90;;;;;;4968346;28;20457;-91
2021/03/18 02:30:56;;;;;;;7.93;5.47;;;3.50;99.90;;;;;;4970073;28;20490;-91
2021/03/18 02:33:59;;;;;;;6.28;4.90;;;3.40;99.90;;;;;;4962709;29;20188;-91
2021/03/18 02:36:36;;;;;;;7.15;5.40;;;3.40;99.90;;;;;;4966126;29;20219;-91
2021/03/18 02:39:06;;;;;;;7.35;5.43;;;3.30;99.90;;;;;;4963682;28;20568;-91
2021/03/18 02:41:38;;;;;;;7.00;5.95;;;3.30;99.90;;;;;;4964346;29;20220;-91
2021/03/18 02:44:09;;;;;;;5.13;4.50;;;3.30;99.90;;;;;;4966225;28;20212;-91
2021/03/18 02:46:39;;;;;;;5.57;4.90;;;3.30;99.90;;;;;;4981988;28;20226;-92
2021/03/18 02:49:07;;;;;;;5.20;4.70;;;3.30;99.90;;;;;;4981446;28;20462;-92
2021/03/18 02:51:37;;;;;;;5.95;5.15;;;3.30;99.90;;;;;;4981696;28;20222;-91
2021/03/18 02:54:07;;;;;;;9.23;5.00;;;3.30;99.90;;;;;;4981449;28;20250;-92
2021/03/18 02:56:37;;;;;;;5.85;5.30;;;3.40;99.90;;;;;;4967856;28;20948;-92
2021/03/18 02:59:05;;;;;;;7.37;5.00;;;3.50;99.90;;;;;;4965350;28;20287;-91
2021/03/18 03:01:33;;;;;;;7.80;4.77;;;3.60;99.90;;;;;;4965066;28;20820;-91
2021/03/18 03:04:01;;;;;;;8.35;5.25;;;3.60;99.90;;;;;;4976378;28;20436;-92
2021/03/18 03:06:30;;;;;;;4.93;4.53;;;3.60;99.90;;;;;;4969222;28;20270;-91
2021/03/18 03:09:00;;;;;;;5.68;4.20;;;3.60;99.90;;;;;;4964888;28;20254;-92
2021/03/18 03:11:28;;;;;;;5.15;4.65;;;3.50;99.90;;;;;;4963878;28;20268;-91
2021/03/18 03:13:56;;;;;;;7.85;5.03;;;3.50;99.90;;;;;;4972468;28;20199;-92
2021/03/18 03:16:24;;;;;;;5.47;4.22;;;3.50;99.90;;;;;;4979179;28;20262;-92
2021/03/18 03:18:52;;;;;;;7.17;5.10;;;3.50;99.90;;;;;;4972865;28;20238;-92
2021/03/18 03:21:21;;;;;;;4.67;4.20;;;3.50;99.90;;;;;;4964866;28;20455;-92
2021/03/18 03:23:48;;;;;;;7.75;5.32;;;3.50;99.90;;;;;;4963328;28;20454;-92
2021/03/18 03:26:19;;;;;;;9.23;4.83;;;3.50;99.90;;;;;;4972029;28;20206;-92
2021/03/18 03:31:20;;;;;;;7.20;5.50;;;3.60;99.90;;;;;;4920847;29;20212;-83
2021/03/18 03:33:47;;;;;;;6.53;5.03;;;3.60;99.90;;;;;;4920180;29;20871;-83
2021/03/18 03:36:14;;;;;;;6.63;5.23;;;3.60;99.90;;;;;;4918299;29;20475;-83
2021/03/18 03:38:40;;;;;;;5.67;4.73;;;3.60;99.90;;;;;;4919077;29;20517;-82
2021/03/18 03:41:07;;;;;;;4.77;4.10;;;3.60;99.90;;;;;;4918431;29;20473;-83
2021/03/18 03:43:35;;;;;;;5.30;4.90;;;3.60;99.90;;;;;;4918116;29;20450;-83
2021/03/18 03:46:01;;;;;;;5.60;5.10;;;3.60;99.90;;;;;;4918177;29;20500;-83
2021/03/18 03:48:31;;;;;;;10.65;5.88;;;3.70;99.90;;;;;;4918476;29;20950;-83
2021/03/18 03:50:57;;;;;;;11.40;5.13;;;3.60;99.90;;;;;;4917581;29;20230;-83
2021/03/18 03:53:31;;;;;;;8.20;4.97;;;3.70;99.90;;;;;;4922498;29;20437;-82
2021/03/18 03:56:04;;;;;;;7.22;5.03;;;3.70;99.90;;;;;;4939494;29;20276;-82
2021/03/18 03:58:44;;;;;;;4.80;4.30;;;3.60;99.90;;;;;;4928456;29;20209;-83
2021/03/18 04:01:16;;;;;;;12.17;5.23;;;3.70;99.90;;;;;;4918500;29;20475;-83
2021/03/18 04:03:45;;;;;;;8.83;5.37;;;3.70;99.90;;;;;;4917982;29;20462;-83
2021/03/18 04:06:11;;;;;;;5.13;4.63;;;3.70;99.90;;;;;;4929308;29;20495;-83
2021/03/18 04:08:42;;;;;;;5.32;4.80;;;3.70;99.90;;;;;;4920159;29;20217;-83
2021/03/18 04:11:10;;;;;;;9.60;4.50;;;3.70;99.90;;;;;;4918328;29;20233;-83
2021/03/18 04:13:37;;;;;;;5.10;4.60;;;3.70;99.90;;;;;;4917545;29;20454;-83
2021/03/18 04:16:04;;;;;;;5.50;5.00;;;3.70;99.90;;;;;;4936045;29;20442;-82
2021/03/18 04:18:36;;;;;;;7.47;6.77;;;3.70;99.90;;;;;;4936983;29;20442;-83
2021/03/18 04:21:05;;;;;;;5.60;4.60;;;3.70;99.90;;;;;;4935436;29;20488;-83
2021/03/18 04:23:33;;;;;;;8.20;4.93;;;3.70;99.90;;;;;;4923210;29;20452;-83
2021/03/18 04:26:00;;;;;;;8.20;5.80;;;3.70;99.90;;;;;;4937693;29;20230;-83
2021/03/18 04:28:28;;;;;;;5.03;4.20;;;3.60;99.90;;;;;;4934803;29;20456;-84
2021/03/18 04:30:55;;;;;;;7.32;5.25;;;3.60;99.90;;;;;;4917742;29;20238;-84
2021/03/18 04:33:24;;;;;;;5.38;4.88;;;3.60;99.90;;;;;;4918361;29;20637;-84
2021/03/18 04:35:51;;;;;;;10.32;5.40;;;3.60;99.90;;;;;;4938898;29;20222;-84
2021/03/18 04:38:18;;;;;;;7.47;4.63;;;3.70;99.90;;;;;;4929783;29;20208;-84
2021/03/18 04:40:45;;;;;;;4.50;4.05;;;3.70;99.90;;;;;;4937475;29;20237;-84
2021/03/18 04:43:12;;;;;;;6.05;4.75;;;3.70;99.90;;;;;;4929149;29;20914;-85
2021/03/18 04:45:40;;;;;;;9.40;4.70;;;3.70;99.90;;;;;;4921590;29;20233;-84
2021/03/18 04:48:07;;;;;;;8.20;4.70;;;3.60;99.90;;;;;;4938688;29;20489;-84
2021/03/18 04:50:35;;;;;;;7.47;5.20;;;3.70;99.90;;;;;;4938884;29;20457;-84
2021/03/18 04:53:01;;;;;;;7.63;4.90;;;3.70;99.90;;;;;;4936513;29;20453;-83
2021/03/18 04:55:28;;;;;;;8.17;5.20;;;3.70;99.90;;;;;;4939571;29;20466;-84
2021/03/18 04:58:00;;;;;;;7.18;4.10;;;3.60;99.90;;;;;;4928152;29;20463;-84
2021/03/18 05:00:28;;;;;;;5.03;4.40;;;3.60;99.90;;;;;;4927306;29;20371;-84
2021/03/18 05:02:55;;;;;;;6.70;5.33;;;3.60;99.90;;;;;;4923055;29;20449;-84
2021/03/18 05:05:23;;;;;;;8.63;4.20;;;3.60;99.80;;;;;;4922796;29;20533;-84
2021/03/18 05:07:52;;;;;;;5.72;4.47;;;3.60;99.90;;;;;;4923327;29;20616;-83
2021/03/18 05:10:21;;;;;;;6.57;5.23;;;3.60;99.90;;;;;;4922187;29;20439;-84
2021/03/18 05:12:48;;;;;;;7.77;5.57;;;3.60;99.80;;;;;;4920723;29;20520;-83
2021/03/18 05:15:15;;;;;;;8.73;4.73;;;3.60;99.90;;;;;;4918727;29;20473;-83
2021/03/18 05:17:43;;;;;;;10.48;5.00;;;3.60;99.80;;;;;;4919983;29;21017;-84
2021/03/18 05:20:13;;;;;;;7.50;5.67;;;3.50;99.90;;;;;;4920135;29;20229;-83
2021/03/18 05:22:40;;;;;;;6.30;4.87;;;3.60;99.90;;;;;;4920367;29;20461;-83
2021/03/18 05:25:08;;;;;;;6.82;6.13;;;3.60;99.90;;;;;;4919660;29;20537;-84
2021/03/18 05:27:36;;;;;;;5.93;5.40;;;3.50;99.90;;;;;;4919798;29;20259;-84
2021/03/18 05:30:03;;;;;;;6.97;5.10;;;3.50;99.90;;;;;;4918689;29;20918;-84
2021/03/18 05:32:30;;;;;;;5.67;5.17;;;3.50;99.90;;;;;;4919962;29;20267;-83
2021/03/18 05:34:56;;;;;;;9.67;6.17;;;3.50;99.90;;;;;;4919964;29;20460;-84
2021/03/18 05:37:22;;;;;;;8.40;5.17;;;3.50;99.90;;;;;;4923861;29;20830;-85
2021/03/18 05:39:48;;;;;;;6.10;4.97;;;3.60;99.90;;;;;;4943011;29;20477;-83
2021/03/18 05:42:16;;;;;;;6.80;5.18;;;3.60;99.90;;;;;;4924213;29;20963;-84
2021/03/18 05:44:43;;;;;;;6.85;4.68;;;3.60;99.90;;;;;;4942968;29;20220;-82
2021/03/18 05:47:10;;;;;;;9.50;5.73;;;3.60;99.90;;;;;;4926311;29;20209;-84
2021/03/18 05:49:37;;;;;;;7.40;6.68;;;3.50;99.90;;;;;;4925461;29;20465;-83
2021/03/18 05:52:07;;;;;;;6.20;5.40;;;3.60;99.90;;;;;;4924060;29;20207;-83
2021/03/18 05:54:34;;;;;;;7.37;5.27;;;3.60;99.90;;;;;;4919700;29;20635;-84
2021/03/18 05:57:01;;;;;;;5.75;5.13;;;3.70;99.90;;;;;;4919701;29;20456;-83
2021/03/18 05:59:29;;;;;;;8.70;5.93;;;3.70;99.90;;;;;;4924121;29;20292;-83
2021/03/18 06:01:56;;;;;;;6.13;4.93;;;3.80;99.90;;;;;;4927603;29;20509;-83
2021/03/18 06:04:23;;;;;;;6.63;6.03;;;3.90;99.90;;;;;;4921154;29;20488;-83
2021/03/18 06:06:50;;;;;;;8.73;5.37;;;4.00;99.90;;;;;;4921804;29;20489;-83
2021/03/18 06:09:17;;;;;;;7.00;5.40;;;4.00;99.90;;;;;;4939987;29;20461;-83
2021/03/18 06:11:43;;;;;;;9.70;5.93;;;4.00;99.90;;;;;;4937373;29;20454;-84
2021/03/18 06:14:10;;;;;;;9.43;6.40;;;4.10;99.90;;;;;;4921532;29;20464;-84
2021/03/18 06:16:39;;;;;;;6.90;5.50;;;4.10;99.90;;;;;;4920892;29;20461;-83
2021/03/18 06:19:07;;;;;;;6.97;6.27;;;4.10;99.90;;;;;;4920824;29;20469;-83
2021/03/18 06:21:48;;;;;;;5.60;5.10;;;4.20;99.90;;;;;;4924073;29;20468;-82
2021/03/18 06:24:15;;;;;;;7.53;6.10;;;4.10;99.80;;;;;;4928889;29;20534;-83
2021/03/18 06:26:41;;;;;;;5.73;5.10;;;4.10;99.50;;;;;;4942067;29;20489;-83
2021/03/18 06:29:34;;;;;;;5.93;5.33;;;4.20;99.30;;;;;;4944370;29;20452;-83
2021/03/18 06:32:16;;;;;;;9.93;6.83;;;4.30;99.10;;;;;;4929420;29;20481;-82
2021/03/18 06:34:44;;;;;;;5.40;4.53;;;4.30;98.90;;;;;;4921546;29;20462;-83
2021/03/18 06:37:37;;;;;;;7.37;5.53;;;4.40;98.50;;;;;;4920033;29;20493;-84
2021/03/18 06:40:16;;;;;;;9.73;5.80;;;4.60;98.50;;;;;;4919858;29;20474;-85
2021/03/18 06:42:52;;;;;;;6.73;5.77;;;4.80;98.40;;;;;;4934986;29;20990;-84
2021/03/18 06:45:19;;;;;;;6.20;5.60;;;5.00;98.10;;;;;;4938748;29;20482;-83
2021/03/18 06:47:48;;;;;;;5.70;5.20;;;5.20;97.30;;;;;;4938767;29;20521;-84
2021/03/18 06:50:16;;;;;;;6.20;5.57;;;5.40;97.10;;;;;;4945126;29;20465;-84
2021/03/18 06:52:44;;;;;;;10.80;5.97;;;5.40;96.40;;;;;;4937728;29;20450;-83
2021/03/18 06:55:13;;;;;;;8.40;6.00;;;5.40;96.30;;;;;;4923560;29;20447;-84
2021/03/18 06:57:39;;;;;;;7.20;5.30;;;5.30;95.80;;;;;;4934755;29;20952;-85
2021/03/18 07:00:09;;;;;;;16.23;5.50;;;5.20;95.90;;;;;;4920238;29;20475;-84
2021/03/18 07:02:40;;;;;;;7.20;5.23;;;5.20;96.20;;;;;;4923946;29;20462;-83
2021/03/18 07:05:17;;;;;;;9.20;5.57;;;5.20;96.50;;;;;;4955026;29;20481;-83
2021/03/18 07:07:44;;;;;;;9.93;6.90;;;5.20;96.10;;;;;;4937142;29;20454;-83
2021/03/18 07:10:11;;;;;;;9.13;6.50;;;5.40;96.30;;;;;;4935579;29;21076;-84
2021/03/18 07:12:37;;;;;;;7.40;6.50;;;5.50;96.20;;;;;;4934908;29;20453;-84
2021/03/18 07:15:17;;;;;;;8.50;5.87;;;5.70;96.30;;;;;;4938999;29;20449;-84
2021/03/18 07:17:43;;;;;;;10.90;6.20;;;5.90;96.10;;;;;;4938592;29;21034;-84
2021/03/18 07:20:13;;;;;;;9.03;6.00;;;6.00;95.90;;;;;;4938846;29;20477;-84
2021/03/18 07:22:44;;;;;;;9.33;5.90;;;6.00;95.20;;;;;;4938706;29;20457;-84
2021/03/18 07:25:12;;;;;;;7.90;5.63;;;6.10;95.00;;;;;;4933076;29;20494;-84
2021/03/18 07:27:40;;;;;;;9.33;5.70;;;6.20;94.70;;;;;;4921663;29;20965;-84
2021/03/18 07:30:08;;;;;;;6.33;5.50;;;6.20;94.20;;;;;;4939073;29;20494;-82
2021/03/18 07:32:35;;;;;;;9.17;5.83;;;6.20;93.60;;;;;;4955769;29;20474;-83
2021/03/18 07:35:01;;;;;;;8.93;6.20;;;6.20;93.70;;;;;;4952760;29;20949;-84
2021/03/18 07:37:28;;;;;;;11.23;6.90;;;6.30;94.10;;;;;;4938657;29;20454;-84
2021/03/18 07:39:54;;;;;;;7.40;5.70;;;6.40;94.10;;;;;;4921972;29;20470;-83
2021/03/18 07:42:22;;;;;;;9.80;7.07;;;6.50;93.80;;;;;;4929153;29;20455;-82
2021/03/18 07:44:49;;;;;;;7.17;5.70;;;6.60;93.80;;;;;;4933480;29;20533;-83
2021/03/18 07:47:16;;;;;;;11.83;6.53;;;6.60;93.10;;;;;;4924343;29;20767;-82
2021/03/18 07:49:46;;;;;;;9.50;6.40;;;6.90;93.00;;;;;;4940385;29;20485;-83
2021/03/18 07:52:18;;;;;;;8.33;5.50;;;7.20;92.30;;;;;;4922468;29;20497;-88
2021/03/18 07:54:48;;;;;;;8.00;6.60;;;7.60;91.00;;;;;;4936810;29;20439;-83
2021/03/18 07:57:15;;;;;;;9.87;6.80;;;8.20;90.30;;;;;;4937371;29;20538;-84
2021/03/18 07:59:41;;;;;;;7.47;5.87;;;8.70;88.80;;;;;;4935324;29;20462;-84
2021/03/18 08:02:12;;;;;;;9.10;7.53;;;8.80;86.60;;;;;;4925085;29;20451;-84
2021/03/18 08:04:42;;;;;;;11.13;7.17;;;8.60;84.70;;;;;;4937533;29;20422;-84
2021/03/18 08:07:09;;;;;;;8.37;6.03;;;8.70;86.10;;;;;;4932864;29;20474;-84
2021/03/18 08:09:52;;;;;;;8.60;6.37;;;9.40;86.10;;;;;;4928820;29;20482;-84
2021/03/18 08:12:49;;;;;;;8.90;7.30;;;10.20;82.50;;;;;;4922592;29;20446;-84
2021/03/18 08:15:26;;;;;;;8.73;6.50;;;10.70;79.90;;;;;;4920438;29;20442;-84
2021/03/18 08:17:54;;;;;;;7.70;7.00;;;10.60;78.10;;;;;;4937323;29;20446;-83
2021/03/18 08:20:58;;;;;;;9.63;7.27;;;10.10;76.30;;;;;;4935853;29;20477;-82
2021/03/18 08:23:52;;;;;;;7.80;7.00;;;9.80;79.20;;;;;;4940129;29;20525;-84
2021/03/18 08:26:50;;;;;;;7.80;6.30;;;10.10;78.70;;;;;;4949940;29;20470;-84
2021/03/18 08:29:22;;;;;;;8.60;6.20;;;10.60;77.80;;;;;;4928552;29;20450;-83
2021/03/18 08:31:56;;;;;;;9.17;6.47;;;11.30;76.10;;;;;;4936096;29;20518;-84
2021/03/18 08:34:48;;;;;;;11.57;10.03;;;12.00;73.30;;;;;;4917625;29;20447;-84
2021/03/18 08:37:15;;;;;;;6.70;6.10;;;12.90;70.20;;;;;;4940173;29;20457;-83
2021/03/18 08:39:50;;;;;;;8.40;7.47;;;12.60;67.80;;;;;;4939778;29;20474;-84
2021/03/18 08:42:41;;;;;;;10.53;7.40;;;12.00;68.20;;;;;;4939550;29;20453;-84
2021/03/18 08:45:36;;;;;;;11.10;7.57;;;12.40;69.40;;;;;;4924006;29;20489;-84
2021/03/18 08:48:12;;;;;;;11.43;7.90;;;13.30;68.90;;;;;;4918404;29;20444;-84
2021/03/18 08:50:50;;;;;;;9.13;8.17;;;14.80;66.10;;;;;;4918558;29;20546;-84
2021/03/18 08:53:36;;;;;;;10.73;6.77;;;15.90;60.80;;;;;;4925379;29;20502;-84
2021/03/18 08:56:03;;;;;;;7.97;7.10;;;17.80;59.10;;;;;;4910881;29;20455;-84
2021/03/18 08:58:44;;;;;;;8.00;7.20;;;18.60;54.70;;;;;;4900153;29;20542;-84
2021/03/18 09:01:15;;;;;;;9.97;7.30;;;18.00;53.50;;;;;;4898885;29;20467;-84
2021/03/18 09:03:41;;;;;;;9.57;7.60;;;16.50;54.00;;;;;;4906495;29;21088;-84
2021/03/18 09:06:08;;;;;;;7.37;6.40;;;14.70;56.80;;;;;;4922220;29;21003;-83
2021/03/18 09:08:35;;;;;;;7.40;6.70;;;13.30;59.10;;;;;;4917330;29;20493;-83
2021/03/18 09:11:01;;;;;;;8.70;7.77;;;12.10;62.20;;;;;;4922224;29;20495;-83
2021/03/18 09:13:31;;;;;;;8.50;7.70;;;11.40;65.80;;;;;;4918703;29;20455;-83
2021/03/18 09:15:58;;;;;;;11.07;7.93;;;10.90;68.10;;;;;;4917859;29;20487;-83
2021/03/18 09:18:26;;;;;;;8.40;7.33;;;10.70;68.30;;;;;;4917928;29;20458;-83
2021/03/18 09:20:56;;;;;;;8.97;8.10;;;10.20;69.50;;;;;;4930549;29;20451;-83
2021/03/18 09:23:25;;;;;;;9.70;7.23;;;9.90;71.30;;;;;;4925924;29;20514;-84
2021/03/18 09:25:53;;;;;;;12.33;8.00;;;9.40;71.90;;;;;;4953994;28;20485;-84
2021/03/18 09:28:20;;;;;;;16.30;7.63;;;9.20;74.20;;;;;;4938191;29;20450;-84
2021/03/18 09:30:54;;;;;;;9.00;7.57;;;9.20;74.70;;;;;;4958922;23;20489;-89
2021/03/18 09:33:25;;;;;;;10.13;7.63;;;9.10;75.60;;;;;;4935578;29;20427;-86
2021/03/18 09:35:53;;;;;;;8.90;8.00;;;9.10;75.30;;;;;;4946663;28;20446;-88
2021/03/18 09:38:23;;;;;;;9.70;6.80;;;9.40;75.50;;;;;;4939850;29;20455;-87
2021/03/18 09:40:50;;;;;;;9.60;7.20;;;10.30;72.50;;;;;;4940081;29;20474;-88
2021/03/18 09:43:20;;;;;;;7.87;7.03;;;12.60;69.10;;;;;;4942775;28;20460;-89
2021/03/18 09:45:58;;;;;;;9.50;7.30;;;14.50;63.60;;;;;;4938055;29;20490;-90
2021/03/18 09:48:33;;;;;;;9.80;6.60;;;17.50;57.20;;;;;;4939921;29;20533;-88
2021/03/18 09:51:07;;;;;;;9.57;6.83;;;17.90;53.20;;;;;;4938014;29;20534;-89
2021/03/18 09:53:34;;;;;;;8.80;6.40;;;19.90;50.70;;;;;;4938514;29;20442;-89
2021/03/18 09:56:08;;;;;;;7.90;7.20;;;21.90;48.50;;;;;;4942399;29;20442;-88
2021/03/18 09:58:35;;;;;;;8.50;6.93;;;23.00;46.30;;;;;;4942064;29;20483;-89
2021/03/18 10:01:10;;;;;;;10.20;6.50;;;23.80;41.20;;;;;;4943536;29;20462;-87
2021/03/18 10:03:38;;;;;;;7.47;6.77;;;24.40;41.60;;;;;;4940766;29;20437;-87
2021/03/18 10:06:09;;;;;;;9.30;5.80;;;24.50;40.00;;;;;;4930596;29;20478;-90
2021/03/18 10:08:35;;;;;;;8.80;6.60;;;23.90;39.30;;;;;;4929633;29;20482;-90
2021/03/18 10:11:13;;;;;;;9.60;6.10;;;21.40;39.70;;;;;;4946717;29;20497;-89
2021/03/18 10:13:40;;;;;;;7.73;6.53;;;19.10;42.50;;;;;;4928546;29;20961;-90
2021/03/18 10:16:10;;;;;;;8.00;5.93;;;17.10;44.50;;;;;;4936509;29;20453;-90
2021/03/18 10:18:49;;;;;;;7.20;6.23;;;15.50;47.80;;;;;;4936552;29;20542;-89
2021/03/18 10:21:18;;;;;;;6.80;6.10;;;14.20;49.70;;;;;;4936550;29;20482;-90
2021/03/18 10:27:14;;;;;;;6.93;6.20;;;12.50;53.90;;;;;;4919876;29;20493;-88
2021/03/18 10:29:42;;;;;;;9.17;6.47;;;11.70;55.60;;;;;;4890165;29;20506;-89
2021/03/18 10:32:13;;;;;;;9.00;7.27;;;11.30;56.80;;;;;;4943036;29;20476;-87
2021/03/18 10:34:52;;;;;;;7.83;6.03;;;11.10;57.30;;;;;;4942803;29;20450;-88
2021/03/18 10:37:28;;;;;;;7.13;6.40;;;10.90;58.10;;;;;;4938740;29;20448;-90
2021/03/18 10:40:18;;;;;;;7.60;5.90;;;10.80;58.60;;;;;;4935704;29;20574;-89
2021/03/18 10:42:51;;;;;;;9.40;6.40;;;10.80;58.50;;;;;;4930084;29;20534;-89
2021/03/18 10:45:21;;;;;;;16.57;6.43;;;10.90;58.10;;;;;;4927556;29;20549;-87
2021/03/18 10:47:48;;;;;;;11.43;6.40;;;10.70;57.90;;;;;;4932604;29;20430;-87
2021/03/18 10:50:19;;;;;;;6.10;5.53;;;10.70;58.20;;;;;;4934747;29;20477;-86
2021/03/18 10:53:23;;;;;;;6.23;5.63;;;10.60;58.50;;;;;;4929697;29;20588;-87
2021/03/18 10:55:55;;;;;;;5.87;5.37;;;10.90;58.20;;;;;;4922143;29;20470;-87
2021/03/18 10:58:25;;;;;;;10.07;7.10;;;11.10;57.90;;;;;;4930445;29;20932;-87
2021/03/18 11:03:54;;;;;;;6.70;6.10;;;11.30;59.50;;;;;;4937863;29;20438;-92
2021/03/18 11:06:56;;;;;;;9.50;6.33;;;11.80;58.90;;;;;;4939805;29;20469;-91
2021/03/18 11:09:23;;;;;;;8.97;6.20;;;12.10;57.50;;;;;;4931340;29;20459;-91
2021/03/18 11:12:04;;;;;;;8.40;6.77;;;12.20;57.10;;;;;;4929794;29;20468;-91
2021/03/18 11:14:31;;;;;;;8.03;6.07;;;12.40;57.00;;;;;;4911923;29;20459;-90
2021/03/18 11:17:03;;;;;;;8.73;5.80;;;12.70;56.10;;;;;;4912448;29;20472;-89
2021/03/18 11:19:29;;;;;;;9.87;5.40;;;13.00;54.50;;;;;;4920620;29;20476;-88
2021/03/18 11:22:02;;;;;;;7.03;6.10;;;13.20;53.70;;;;;;4940131;29;20494;-88
2021/03/18 11:31:53;;;;;;;6.63;5.33;;;18.20;45.10;;;;;;4870343;29;20557;-86
2021/03/18 11:34:30;;;;;;;8.33;5.70;;;18.90;42.40;;;;;;4889250;29;20524;-87
2021/03/18 11:36:59;;;;;;;6.97;6.27;;;18.20;42.70;;;;;;4889233;29;20454;-88
2021/03/18 11:39:27;;;;;;;7.53;5.10;;;16.70;44.80;;;;;;4891408;29;20504;-89
2021/03/18 11:42:03;;;;;;;5.97;5.40;;;17.20;45.70;;;;;;4932298;29;20510;-88
2021/03/18 11:45:15;;;;;;;9.13;5.07;;;18.30;44.70;;;;;;4941540;29;20454;-87
2021/03/18 11:47:41;;;;;;;7.10;5.47;;;19.00;42.40;;;;;;4920173;29;20445;-86
2021/03/18 11:50:13;;;;;;;5.70;5.03;;;20.10;41.10;;;;;;4934007;29;20474;-88
2021/03/18 11:52:48;;;;;;;6.70;5.73;;;20.20;39.90;;;;;;4896980;29;20451;-89
2021/03/18 11:55:28;;;;;;;5.90;5.30;;;19.90;41.60;;;;;;4906229;29;20447;-90
2021/03/18 11:58:02;;;;;;;11.63;7.27;;;22.00;39.50;;;;;;4924042;29;20462;-90
2021/03/18 12:00:50;;;;;;;7.20;6.50;;;20.00;37.60;;;;;;4931515;29;20454;-88
2021/03/18 12:03:17;;;;;;;7.23;6.57;;;17.20;43.20;;;;;;4916820;29;20508;-89
2021/03/18 12:05:50;;;;;;;7.27;6.20;;;15.50;45.80;;;;;;4938050;29;20572;-90
2021/03/18 12:08:16;;;;;;;6.50;5.90;;;14.20;48.80;;;;;;4921701;29;20512;-88
2021/03/18 12:10:44;;;;;;;7.50;6.10;;;13.10;50.40;;;;;;4906364;29;20490;-88
2021/03/18 12:13:10;;;;;;;6.10;5.50;;;12.20;53.30;;;;;;4904520;29;20490;-89
2021/03/18 12:15:36;;;;;;;6.37;5.77;;;11.50;54.40;;;;;;4904035;29;20525;-89
2021/03/18 12:18:03;;;;;;;6.93;6.23;;;11.10;57.30;;;;;;4906436;29;20454;-89
2021/03/18 12:20:30;;;;;;;5.53;4.20;;;10.70;57.50;;;;;;4922701;29;20498;-89
2021/03/18 12:22:57;;;;;;;4.63;4.23;;;10.50;58.20;;;;;;4928416;29;20455;-89
2021/03/18 12:25:23;;;;;;;3.80;3.50;;;10.20;58.20;;;;;;4930632;29;20553;-89
2021/03/18 12:27:51;;;;;;;6.90;4.27;;;10.10;58.50;;;;;;4931067;29;20550;-89
2021/03/18 12:30:19;;;;;;;5.87;3.83;;;10.10;57.60;;;;;;4916021;29;20861;-89
2021/03/18 12:32:50;;;;;;;3.50;3.20;;;10.00;57.20;;;;;;4914729;29;20472;-90
2021/03/18 12:35:18;;;;;;;5.73;4.53;;;9.90;57.00;;;;;;4912470;29;20507;-88
2021/03/18 12:37:46;;;;;;;6.40;5.20;;;9.90;57.40;;;;;;4914076;29;20805;-90
2021/03/18 12:40:19;;;;;;;7.00;5.17;;;9.90;57.20;;;;;;4908190;29;20484;-91
2021/03/18 12:42:47;;;;;;;7.40;4.63;;;9.90;58.40;;;;;;4910995;29;20507;-89
2021/03/18 12:45:18;;;;;;;6.80;5.23;;;10.00;56.50;;;;;;4909110;29;20464;-89
2021/03/18 12:47:45;;;;;;;7.73;6.30;;;10.00;60.30;;;;;;4905109;29;20465;-89
2021/03/18 12:50:15;;;;;;;14.40;6.30;;;10.00;64.10;;;;;;4916582;29;20467;-90
2021/03/18 12:52:49;;;;;;;12.90;5.90;;;10.10;64.60;;;;;;4921061;29;20432;-92
2021/03/18 12:55:18;;;;;;;5.47;4.97;;;10.30;64.10;;;;;;4991630;23;21763;-91
2021/03/18 12:57:48;;;;;;;6.00;5.40;;;10.80;64.70;;;;;;4938731;29;20450;-91
2021/03/18 13:00:18;;;;;;;6.20;5.60;;;12.00;61.90;;;;;;4937846;29;20503;-91
2021/03/18 13:02:45;;;;;;;6.90;5.33;;;13.40;58.30;;;;;;4939892;29;20438;-91
2021/03/18 13:05:12;;;;;;;6.30;4.97;;;14.80;55.10;;;;;;4939225;29;20461;-90
2021/03/18 13:07:39;;;;;;;7.10;5.10;;;16.20;52.30;;;;;;4940150;29;20510;-93
2021/03/18 13:10:07;;;;;;;5.87;5.23;;;15.70;51.50;;;;;;4938853;29;20455;-90
2021/03/18 13:12:34;;;;;;;7.30;5.17;;;14.90;52.00;;;;;;4929948;29;20459;-90
2021/03/18 13:15:02;;;;;;;6.23;5.57;;;13.80;53.00;;;;;;4927931;29;20437;-90
2021/03/18 13:17:30;;;;;;;6.93;5.80;;;13.30;55.00;;;;;;4931129;29;20430;-91
2021/03/18 13:19:59;;;;;;;6.80;6.13;;;13.10;56.00;;;;;;4912461;29;21007;-90
2021/03/18 13:25:09;;;;;;;7.37;5.97;;;12.00;58.30;;;;;;4919068;29;20451;-90
2021/03/18 13:27:38;;;;;;;7.40;5.70;;;11.50;59.70;;;;;;4914398;29;20522;-90
2021/03/18 13:30:07;;;;;;;6.80;5.40;;;11.00;61.10;;;;;;4915579;29;20447;-90
2021/03/18 13:35:25;;;;;;;4.83;4.40;;;11.90;62.30;;;;;;4923139;29;20450;-90